This is the latest recevied weather packets stored in our database for station/object I1SXT-13. If no packets are shown the sender has not sent any weather packets the latest 10 day(s).
| Time | Temp. | Humidity | Pressure | Rain* | Wind** | Luminosity | Snow |
|---|---|---|---|---|---|---|---|
| 1777867769 | 11.67° C | 71% | 1018.4 hPa | 0 mm | - | - | - |
| 1777867465 | 12.78° C | 66% | 1018.9 hPa | 0 mm | - | - | - |
| 1777867168 | 12.22° C | 65% | 1018.6 hPa | 0 mm | - | - | - |
| 1777866863 | 12.22° C | 67% | 1018.3 hPa | 0 mm | - | - | - |
| 1777866567 | 11.67° C | 71% | 1018.3 hPa | 0 mm | - | - | - |
| 1777866269 | 11.11° C | 74% | 1018.9 hPa | 0 mm | - | - | - |
| 1777865965 | 11.11° C | 75% | 1018.6 hPa | 0 mm | - | - | - |
| 1777865668 | 11.11° C | 73% | 1019.2 hPa | 0 mm | - | - | - |
| 1777865067 | 11.11° C | 75% | 1018.5 hPa | 0 mm | - | - | - |
| 1777864769 | 11.11° C | 75% | 1018.8 hPa | 0 mm | - | - | - |
| 1777864466 | 11.11° C | 75% | 1019 hPa | 0 mm | - | - | - |
| 1777864168 | 10.56° C | 76% | 1018.9 hPa | 0 mm | - | - | - |
| 1777863864 | 11.11° C | 76% | 1019.3 hPa | 0 mm | - | - | - |
| 1777863567 | 11.11° C | 75% | 1019.7 hPa | 0 mm | - | - | - |
| 1777863270 | 11.11° C | 75% | 1019.4 hPa | 0 mm | - | - | - |
| 1777862966 | 11.11° C | 73% | 1018.9 hPa | 0 mm | - | - | - |
| 1777862669 | 11.11° C | 75% | 1019.5 hPa | 0 mm | - | - | - |
| 1777862365 | 11.11° C | 73% | 1019.5 hPa | 0 mm | - | - | - |
| 1777862068 | 11.67° C | 71% | 1019 hPa | 0 mm | - | - | - |
| 1777861764 | 11.67° C | 71% | 1019.4 hPa | 0 mm | - | - | - |
| 1777861466 | 11.67° C | 70% | 1019.1 hPa | 0 mm | - | - | - |
| 1777861169 | 11.67° C | 71% | 1019.8 hPa | 0 mm | - | - | - |
| 1777860865 | 12.22° C | 68% | 1019.5 hPa | 0 mm | - | - | - |
| 1777860568 | 12.22° C | 66% | 1019.9 hPa | 0 mm | - | - | - |
| 1777859967 | 12.22° C | 69% | 1019.2 hPa | 0 mm | - | - | - |
* Rain since midnight (hover to see other rain measurements)
** Current wind speed in m/s (hover to see current wind gust speed)